createdAt,value
2022-11-24T00:01:22.962Z,6.10
2022-11-24T00:03:56.345Z,6.08
2022-11-24T00:06:25.318Z,6.06
2022-11-24T00:08:54.760Z,6.15
2022-11-24T00:11:25.677Z,6.28
2022-11-24T00:13:54.579Z,6.16
2022-11-24T00:16:25.826Z,6.07
2022-11-24T00:18:57.810Z,6.17
2022-11-24T00:21:27.731Z,6.12
2022-11-24T00:23:56.755Z,6.16
2022-11-24T00:26:28.112Z,6.13
2022-11-24T00:28:58.761Z,6.15
2022-11-24T00:31:29.449Z,6.14
2022-11-24T00:34:01.976Z,6.21
2022-11-24T00:36:33.505Z,6.17
2022-11-24T00:39:03.902Z,6.19
2022-11-24T00:41:32.585Z,6.15
2022-11-24T00:44:01.471Z,6.18
2022-11-24T00:46:30.786Z,6.24
2022-11-24T00:49:02.101Z,6.30
2022-11-24T00:51:31.486Z,6.38
2022-11-24T00:54:00.856Z,6.44
2022-11-24T00:56:30.585Z,6.54
2022-11-24T00:58:58.972Z,6.54
2022-11-24T01:01:29.435Z,6.54
2022-11-24T01:04:02.496Z,6.52
2022-11-24T01:06:32.394Z,6.63
2022-11-24T01:09:00.998Z,6.60
2022-11-24T01:11:52.132Z,6.62
2022-11-24T01:14:21.008Z,6.55
2022-11-24T01:16:49.745Z,6.55
2022-11-24T01:19:20.089Z,6.51
2022-11-24T01:21:48.888Z,6.61
2022-11-24T01:24:17.615Z,6.68
2022-11-24T01:26:46.334Z,6.63
2022-11-24T01:29:14.837Z,6.60
2022-11-24T01:31:43.425Z,6.60
2022-11-24T01:34:12.910Z,6.68
2022-11-24T01:36:42.795Z,6.83
2022-11-24T01:39:11.184Z,6.78
2022-11-24T01:41:39.509Z,6.69
2022-11-24T01:44:24.813Z,6.72
2022-11-24T01:46:57.429Z,6.62
2022-11-24T01:49:32.281Z,6.62
2022-11-24T01:52:07.883Z,6.60
2022-11-24T01:54:37.547Z,6.56
2022-11-24T01:57:11.192Z,6.56
2022-11-24T01:59:39.680Z,6.48
2022-11-24T02:02:08.737Z,6.51
2022-11-24T02:04:38.051Z,6.48
2022-11-24T02:07:08.592Z,6.62
2022-11-24T02:09:44.038Z,6.65
2022-11-24T02:12:12.571Z,6.60
2022-11-24T02:14:43.239Z,6.55
2022-11-24T02:17:11.910Z,6.52
2022-11-24T02:19:49.971Z,6.52
2022-11-24T02:22:27.728Z,6.46
2022-11-24T02:25:04.383Z,6.49
2022-11-24T02:27:34.351Z,6.47
2022-11-24T02:30:02.945Z,6.52
2022-11-24T02:32:34.464Z,6.49
2022-11-24T02:39:28.225Z,6.65
2022-11-24T02:42:01.269Z,6.76
2022-11-24T02:44:36.523Z,6.77
2022-11-24T02:47:06.940Z,6.84
2022-11-24T02:49:35.392Z,6.84
2022-11-24T02:52:04.684Z,6.92
2022-11-24T02:54:33.442Z,6.92
2022-11-24T02:57:01.949Z,6.89
2022-11-24T02:59:31.872Z,6.83
2022-11-24T03:02:00.288Z,6.80
2022-11-24T03:04:28.634Z,6.68
2022-11-24T03:06:57.637Z,6.64
2022-11-24T03:09:25.987Z,6.66
2022-11-24T03:11:54.374Z,6.72
2022-11-24T03:14:22.734Z,6.80
2022-11-24T03:16:52.620Z,6.73
2022-11-24T03:19:20.984Z,6.70
2022-11-24T03:21:49.304Z,6.90
2022-11-24T03:24:17.735Z,6.92
2022-11-24T03:26:46.584Z,7.00
2022-11-24T03:29:15.013Z,7.05
2022-11-24T03:31:43.480Z,7.05
2022-11-24T03:34:13.293Z,7.01
2022-11-24T03:36:41.668Z,7.10
2022-11-24T03:39:10.144Z,7.11
2022-11-24T03:41:38.608Z,7.08
2022-11-24T03:44:07.065Z,7.26
2022-11-24T03:46:35.451Z,7.31
2022-11-24T03:49:04.117Z,7.30
2022-11-24T03:51:33.883Z,7.35
2022-11-24T03:54:02.248Z,7.41
2022-11-24T03:56:30.631Z,7.41
2022-11-24T03:58:58.989Z,7.40
2022-11-24T04:01:27.405Z,7.36
2022-11-24T04:03:55.767Z,7.42
2022-11-24T04:06:24.127Z,7.43
2022-11-24T04:08:54.307Z,7.47
2022-11-24T04:11:40.484Z,7.44
2022-11-24T04:14:13.349Z,7.38
2022-11-24T04:16:42.166Z,7.43
2022-11-24T04:19:10.621Z,7.47
2022-11-24T04:21:38.954Z,7.52
2022-11-24T04:24:08.946Z,7.51
2022-11-24T04:26:37.412Z,7.50
2022-11-24T04:29:05.740Z,7.50
2022-11-24T04:31:34.208Z,7.40
2022-11-24T04:34:02.588Z,7.37
2022-11-24T04:36:31.067Z,7.31
2022-11-24T04:39:23.589Z,7.21
2022-11-24T04:41:49.418Z,7.25
2022-11-24T04:44:18.094Z,7.18
2022-11-24T04:46:46.500Z,7.07
2022-11-24T04:49:14.929Z,6.85
2022-11-24T04:51:43.745Z,6.74
2022-11-24T04:54:14.054Z,6.67
2022-11-24T04:56:43.766Z,6.62
2022-11-24T04:59:15.734Z,6.70
2022-11-24T05:01:44.925Z,6.64
2022-11-24T05:04:14.888Z,6.63
2022-11-24T05:06:43.503Z,6.55
2022-11-24T05:09:15.835Z,6.48
2022-11-24T05:11:43.961Z,6.33
2022-11-24T05:14:12.271Z,6.30
2022-11-24T05:16:42.073Z,6.10
2022-11-24T05:19:10.593Z,5.96
2022-11-24T05:21:38.926Z,5.82
2022-11-24T05:24:07.978Z,5.67
2022-11-24T05:26:36.419Z,5.65
2022-11-24T05:29:04.892Z,5.63
2022-11-24T05:31:33.426Z,5.66
2022-11-24T05:34:03.390Z,5.65
2022-11-24T05:36:49.224Z,5.62
2022-11-24T05:39:17.638Z,5.59
2022-11-24T05:41:46.337Z,5.53
2022-11-24T05:44:14.668Z,5.58
2022-11-24T05:46:43.087Z,5.57
2022-11-24T05:49:12.877Z,5.50
2022-11-24T05:51:41.222Z,5.45
2022-11-24T05:54:09.556Z,5.45
2022-11-24T05:56:37.893Z,5.49
2022-11-24T05:59:09.833Z,5.53
2022-11-24T06:01:38.744Z,5.52
2022-11-24T06:04:07.165Z,5.56
2022-11-24T06:06:37.292Z,5.50
2022-11-24T06:09:05.968Z,5.53
2022-11-24T06:11:34.334Z,5.51
2022-11-24T06:14:05.753Z,5.46
2022-11-24T06:16:38.216Z,5.44
2022-11-24T06:19:06.649Z,5.43
2022-11-24T06:21:35.017Z,5.45
2022-11-24T06:24:05.149Z,5.42
2022-11-24T06:26:33.629Z,5.32
2022-11-24T06:29:01.933Z,5.31
2022-11-24T06:31:30.460Z,5.36
2022-11-24T06:33:59.126Z,5.32
2022-11-24T06:36:28.231Z,5.22
2022-11-24T06:38:56.569Z,5.15
2022-11-24T06:41:26.241Z,5.18
2022-11-24T06:43:54.684Z,5.16
2022-11-24T06:46:23.604Z,5.14
2022-11-24T06:48:52.224Z,5.04
2022-11-24T06:51:20.823Z,5.06
2022-11-24T06:53:49.204Z,5.00
2022-11-24T06:56:21.126Z,4.98
2022-11-24T06:58:52.977Z,5.03
2022-11-24T07:01:23.866Z,5.08
2022-11-24T07:03:53.339Z,5.28
2022-11-24T07:06:23.161Z,5.56
2022-11-24T07:08:52.287Z,5.42
2022-11-24T07:11:23.345Z,5.39
2022-11-24T07:13:58.355Z,5.36
2022-11-24T07:16:29.201Z,5.43
2022-11-24T07:19:00.386Z,5.39
2022-11-24T07:21:30.477Z,5.50
2022-11-24T07:23:59.638Z,5.54
2022-11-24T07:26:28.628Z,5.65
2022-11-24T07:28:58.358Z,5.71
2022-11-24T07:31:26.751Z,5.67
2022-11-24T07:33:56.503Z,5.70
2022-11-24T07:36:25.260Z,5.73
2022-11-24T07:38:53.575Z,5.79
2022-11-24T07:41:22.303Z,5.82
2022-11-24T07:43:51.596Z,5.81
2022-11-24T07:46:21.900Z,5.81
2022-11-24T07:48:50.374Z,5.75
2022-11-24T07:51:18.782Z,5.88
2022-11-24T07:53:47.315Z,5.91
2022-11-24T07:56:15.626Z,5.92
2022-11-24T07:58:48.292Z,5.89
2022-11-24T08:01:22.538Z,5.97
2022-11-24T08:03:51.104Z,6.08
2022-11-24T08:06:26.206Z,6.09
2022-11-24T08:08:56.263Z,6.05
2022-11-24T08:11:25.196Z,6.08
2022-11-24T08:13:53.796Z,6.13
2022-11-24T08:16:23.587Z,6.15
2022-11-24T08:18:53.786Z,6.17
2022-11-24T08:21:23.840Z,6.33
2022-11-24T08:23:55.943Z,6.36
2022-11-24T08:26:25.345Z,6.35
2022-11-24T08:28:55.848Z,6.42
2022-11-24T08:31:32.470Z,6.45
2022-11-24T08:34:02.388Z,6.56
2022-11-24T08:36:30.739Z,6.60
2022-11-24T08:39:01.101Z,6.54
2022-11-24T08:41:30.425Z,6.55
2022-11-24T08:43:59.476Z,6.50
2022-11-24T08:46:29.227Z,6.46
2022-11-24T08:48:57.696Z,6.55
2022-11-24T08:51:27.924Z,6.70
2022-11-24T08:53:58.125Z,6.80
2022-11-24T08:56:26.996Z,6.82
2022-11-24T08:58:55.711Z,6.69
2022-11-24T09:01:25.250Z,6.60
2022-11-24T09:03:55.271Z,6.66
2022-11-24T09:06:25.651Z,6.82
2022-11-24T09:08:55.487Z,6.98
2022-11-24T09:11:25.187Z,7.10
2022-11-24T09:13:54.248Z,7.23
2022-11-24T09:16:25.694Z,7.06
2022-11-24T09:19:00.422Z,7.25
2022-11-24T09:21:29.762Z,7.87
2022-11-24T09:23:58.363Z,9.38
2022-11-24T09:26:28.016Z,9.17
2022-11-24T09:28:57.956Z,8.69
2022-11-24T09:31:30.002Z,10.07
2022-11-24T09:33:59.783Z,9.77
2022-11-24T09:36:28.970Z,8.98
2022-11-24T09:38:57.362Z,9.33
2022-11-24T09:41:40.154Z,10.66
2022-11-24T09:44:31.921Z,11.23
2022-11-24T09:47:07.489Z,11.89
2022-11-24T09:49:47.243Z,12.55
2022-11-24T09:52:23.924Z,13.40
2022-11-24T09:54:57.551Z,14.20
2022-11-24T09:57:31.396Z,14.65
2022-11-24T10:00:11.895Z,14.76
2022-11-24T10:02:40.720Z,14.67
2022-11-24T10:05:13.565Z,14.40
2022-11-24T10:07:48.278Z,14.49
2022-11-24T10:10:24.628Z,14.27
2022-11-24T10:13:04.194Z,14.35
2022-11-24T10:15:43.467Z,14.43
2022-11-24T10:18:39.876Z,14.69
2022-11-24T10:21:29.442Z,14.65
2022-11-24T10:24:22.614Z,15.41
2022-11-24T10:26:57.730Z,15.71
2022-11-24T10:29:29.646Z,14.86
2022-11-24T10:31:58.746Z,14.72
2022-11-24T10:34:31.192Z,15.14
2022-11-24T10:37:07.530Z,15.73
2022-11-24T10:39:41.959Z,15.98
2022-11-24T10:42:17.105Z,15.99
2022-11-24T10:44:45.703Z,15.83
2022-11-24T10:47:22.931Z,15.60
2022-11-24T10:49:57.543Z,16.80
2022-11-24T10:52:29.479Z,16.02
2022-11-24T10:54:59.574Z,15.69
2022-11-24T10:57:30.672Z,14.46
2022-11-24T10:59:59.572Z,15.20
2022-11-24T11:02:37.638Z,15.33
2022-11-24T11:05:37.837Z,15.02
2022-11-24T11:08:23.634Z,16.08
2022-11-24T11:11:08.241Z,15.72
2022-11-24T11:13:36.540Z,16.22
2022-11-24T11:16:23.739Z,17.08
2022-11-24T11:18:52.314Z,17.85
2022-11-24T11:21:32.474Z,17.84
2022-11-24T11:24:04.629Z,17.32
2022-11-24T11:26:38.357Z,15.97
2022-11-24T11:35:07.764Z,16.79
2022-11-24T11:37:36.106Z,18.06
2022-11-24T11:40:16.096Z,17.37
2022-11-24T11:43:04.234Z,16.04
2022-11-24T11:45:36.849Z,16.00
2022-11-24T11:48:23.483Z,17.11
2022-11-24T11:53:50.367Z,18.76
2022-11-24T11:56:27.426Z,18.81
2022-11-24T11:59:14.989Z,18.18
2022-11-24T12:02:05.408Z,17.94
2022-11-24T12:04:45.209Z,18.37
2022-11-24T12:07:29.823Z,18.86
2022-11-24T12:10:07.922Z,18.27
2022-11-24T12:12:57.964Z,17.71
2022-11-24T12:15:37.580Z,17.84
2022-11-24T12:18:40.113Z,17.57
2022-11-24T12:21:11.858Z,17.43
2022-11-24T12:23:51.053Z,18.22
2022-11-24T12:26:27.949Z,18.62
2022-11-24T12:29:14.108Z,17.53
2022-11-24T12:31:53.414Z,17.59
2022-11-24T12:34:37.829Z,17.94
2022-11-24T12:37:24.642Z,17.81
2022-11-24T12:40:01.921Z,18.43
2022-11-24T12:42:37.949Z,18.15
2022-11-24T12:45:17.258Z,18.49
2022-11-24T12:48:00.356Z,18.67
2022-11-24T12:50:30.856Z,17.34
2022-11-24T12:53:04.956Z,16.50
2022-11-24T12:55:34.758Z,17.11
2022-11-24T12:58:11.836Z,17.44
2022-11-24T13:00:56.400Z,16.51
2022-11-24T13:03:36.332Z,16.84
2022-11-24T13:06:12.519Z,17.08
2022-11-24T13:08:41.544Z,17.07
2022-11-24T13:11:40.398Z,17.68
2022-11-24T13:14:17.351Z,17.88
2022-11-24T13:19:44.506Z,17.65
2022-11-24T13:22:19.239Z,17.39
2022-11-24T13:25:12.743Z,17.46
2022-11-24T13:27:46.076Z,16.93
2022-11-24T13:30:51.904Z,16.49
2022-11-24T13:33:40.547Z,16.58
2022-11-24T13:36:31.721Z,16.72
2022-11-24T13:39:01.116Z,16.25
2022-11-24T13:42:09.327Z,15.30
2022-11-24T13:44:51.664Z,15.01
2022-11-24T13:47:43.499Z,14.64
2022-11-24T13:50:54.358Z,14.18
2022-11-24T13:53:31.889Z,13.97
2022-11-24T13:56:04.404Z,14.81
2022-11-24T13:58:37.216Z,15.24
2022-11-24T14:01:15.431Z,15.17
2022-11-24T14:07:05.619Z,15.06
2022-11-24T14:09:43.114Z,15.39
2022-11-24T14:12:16.100Z,15.28
2022-11-24T14:14:46.423Z,15.24
2022-11-24T14:17:20.908Z,14.76
2022-11-24T14:19:51.647Z,14.76
2022-11-24T14:22:22.751Z,14.70
2022-11-24T14:24:58.215Z,13.90
2022-11-24T14:27:31.259Z,13.85
2022-11-24T14:30:01.722Z,13.49
2022-11-24T14:32:30.504Z,12.63
2022-11-24T14:34:58.905Z,11.63
2022-11-24T14:37:27.406Z,11.32
2022-11-24T14:39:57.308Z,11.23
2022-11-24T14:42:28.227Z,11.39
2022-11-24T14:44:59.185Z,11.06
2022-11-24T14:47:31.605Z,10.64
2022-11-24T14:50:12.535Z,10.24
2022-11-24T14:52:46.712Z,10.03
2022-11-24T14:55:27.514Z,9.78
2022-11-24T14:57:56.617Z,9.59
2022-11-24T15:00:30.812Z,9.46
2022-11-24T15:03:20.462Z,9.29
2022-11-24T15:05:55.331Z,9.18
2022-11-24T15:08:25.448Z,9.03
2022-11-24T15:11:00.107Z,8.87
2022-11-24T15:13:29.802Z,8.87
2022-11-24T15:16:03.214Z,8.84
2022-11-24T15:18:38.326Z,8.77
2022-11-24T15:21:07.301Z,8.68
2022-11-24T15:23:37.005Z,8.74
2022-11-24T15:26:33.075Z,8.69
2022-11-24T15:29:03.701Z,8.65
2022-11-24T15:31:33.386Z,8.50
2022-11-24T15:34:01.775Z,8.45
2022-11-24T15:36:30.105Z,8.27
2022-11-24T15:38:58.583Z,8.18
2022-11-24T15:41:31.386Z,8.10
2022-11-24T15:44:00.652Z,8.00
2022-11-24T15:46:29.738Z,7.93
2022-11-24T15:48:58.249Z,7.89
2022-11-24T15:51:27.722Z,7.83
2022-11-24T15:54:01.057Z,7.71
2022-11-24T15:56:34.023Z,7.70
2022-11-24T15:59:05.757Z,7.63
2022-11-24T16:01:34.953Z,7.53
2022-11-24T16:04:03.844Z,7.47
2022-11-24T16:06:32.628Z,7.41
2022-11-24T16:09:01.360Z,7.32
2022-11-24T16:11:31.248Z,7.26
2022-11-24T16:13:59.841Z,7.23
2022-11-24T16:16:28.492Z,7.22
2022-11-24T16:18:57.023Z,7.17
2022-11-24T16:21:25.464Z,7.09
2022-11-24T16:23:53.849Z,7.06
2022-11-24T16:26:22.285Z,6.96
2022-11-24T16:28:51.987Z,6.89
2022-11-24T16:31:20.613Z,6.92
2022-11-24T16:33:49.025Z,6.90
2022-11-24T16:36:17.361Z,6.81
2022-11-24T16:38:45.957Z,6.81
2022-11-24T16:41:14.581Z,6.76
2022-11-24T16:43:43.417Z,6.75
2022-11-24T16:46:21.797Z,6.60
2022-11-24T16:48:51.826Z,6.72
2022-11-24T16:51:22.140Z,6.62
2022-11-24T16:53:58.119Z,6.55
2022-11-24T16:56:26.705Z,6.50
2022-11-24T16:58:55.357Z,6.46
2022-11-24T17:01:25.919Z,6.51
2022-11-24T17:03:54.533Z,6.52
2022-11-24T17:06:23.460Z,6.54
2022-11-24T17:08:51.780Z,6.55
2022-11-24T17:11:22.271Z,6.51
2022-11-24T17:13:51.519Z,6.50
2022-11-24T17:16:21.871Z,6.51
2022-11-24T17:18:52.448Z,6.50
2022-11-24T17:21:22.921Z,6.44
2022-11-24T17:23:54.909Z,6.40
2022-11-24T17:26:24.144Z,6.40
2022-11-24T17:28:53.371Z,6.37
2022-11-24T17:31:23.960Z,6.43
2022-11-24T17:33:56.250Z,6.36
2022-11-24T17:36:25.002Z,6.34
2022-11-24T17:38:53.806Z,6.37
2022-11-24T17:41:23.464Z,6.28
2022-11-24T17:43:52.494Z,6.22
2022-11-24T17:46:21.191Z,6.18
2022-11-24T17:48:49.603Z,6.11
2022-11-24T17:51:21.349Z,6.07
2022-11-24T17:53:52.017Z,6.16
2022-11-24T17:56:23.448Z,6.21
2022-11-24T17:58:55.044Z,6.28
2022-11-24T18:01:24.323Z,6.26
2022-11-24T18:03:54.056Z,6.27
2022-11-24T18:06:25.221Z,6.19
2022-11-24T18:08:54.918Z,6.22
2022-11-24T18:11:30.677Z,6.21
2022-11-24T18:14:02.402Z,6.13
2022-11-24T18:16:32.699Z,6.08
2022-11-24T18:19:10.713Z,6.14
2022-11-24T18:21:41.703Z,6.14
2022-11-24T18:24:11.505Z,6.13
2022-11-24T18:26:40.645Z,6.15
2022-11-24T18:29:09.271Z,6.10
2022-11-24T18:31:38.363Z,6.10
2022-11-24T18:34:07.398Z,6.13
2022-11-24T18:36:36.421Z,6.14
2022-11-24T18:39:08.165Z,6.16
2022-11-24T18:41:36.820Z,6.18
2022-11-24T18:44:08.427Z,6.21
2022-11-24T18:46:37.437Z,6.19
2022-11-24T18:49:06.817Z,6.13
2022-11-24T18:51:40.569Z,6.15
2022-11-24T18:54:10.485Z,6.05
2022-11-24T18:56:38.826Z,6.10
2022-11-24T18:59:07.466Z,6.05
2022-11-24T19:01:36.040Z,6.05
2022-11-24T19:04:05.253Z,6.16
2022-11-24T19:06:35.237Z,6.11
2022-11-24T19:09:06.029Z,6.06
2022-11-24T19:11:37.498Z,6.02
2022-11-24T19:14:07.972Z,6.07
2022-11-24T19:16:36.695Z,6.13
2022-11-24T19:19:05.681Z,6.07
2022-11-24T19:21:37.048Z,6.08
2022-11-24T19:24:06.367Z,6.04
2022-11-24T19:26:36.238Z,6.00
2022-11-24T19:29:06.949Z,5.97
2022-11-24T19:31:35.863Z,6.03
2022-11-24T19:34:05.780Z,6.05
2022-11-24T19:36:34.544Z,6.06
2022-11-24T19:39:04.710Z,6.09
2022-11-24T19:41:33.999Z,6.03
2022-11-24T19:44:03.733Z,6.09
2022-11-24T19:46:33.267Z,6.14
2022-11-24T19:49:02.891Z,6.24
2022-11-24T19:51:33.281Z,6.20
2022-11-24T19:54:02.428Z,6.24
2022-11-24T19:56:34.035Z,6.26
2022-11-24T19:59:05.538Z,6.29
2022-11-24T20:01:37.050Z,6.39
2022-11-24T20:04:08.210Z,6.40
2022-11-24T20:06:39.586Z,6.39
2022-11-24T20:09:09.591Z,6.44
2022-11-24T20:11:38.948Z,6.44
2022-11-24T20:14:12.610Z,6.48
2022-11-24T20:16:42.129Z,6.45
2022-11-24T20:19:13.424Z,6.47
2022-11-24T20:21:45.966Z,6.49
2022-11-24T20:24:20.074Z,6.57
2022-11-24T20:26:50.967Z,6.52
2022-11-24T20:29:21.350Z,6.53
2022-11-24T20:31:52.071Z,6.53
2022-11-24T20:34:21.661Z,6.42
2022-11-24T20:36:50.361Z,6.38
2022-11-24T20:39:20.408Z,6.44
2022-11-24T20:41:49.391Z,6.43
2022-11-24T20:44:21.332Z,6.48
2022-11-24T20:46:50.187Z,6.50
2022-11-24T20:49:21.938Z,6.53
2022-11-24T20:51:54.260Z,6.59
2022-11-24T20:54:22.678Z,6.53
2022-11-24T20:56:52.333Z,6.42
2022-11-24T20:59:24.640Z,6.45
2022-11-24T21:01:55.279Z,6.56
2022-11-24T21:04:26.048Z,6.62
2022-11-24T21:06:54.615Z,6.66
2022-11-24T21:09:23.135Z,6.71
2022-11-24T21:11:51.622Z,6.73
2022-11-24T21:14:20.200Z,6.81
2022-11-24T21:16:49.988Z,6.85
2022-11-24T21:19:18.712Z,6.87
2022-11-24T21:21:47.652Z,6.86
2022-11-24T21:24:17.725Z,6.94
2022-11-24T21:26:47.885Z,6.89
2022-11-24T21:29:20.291Z,6.91
2022-11-24T21:31:50.332Z,6.92
2022-11-24T21:34:19.377Z,7.06
2022-11-24T21:36:48.021Z,7.01
2022-11-24T21:39:16.873Z,6.99
2022-11-24T21:41:45.370Z,7.01
2022-11-24T21:44:14.659Z,6.98
2022-11-24T21:46:48.186Z,7.04
2022-11-24T21:49:26.162Z,7.05
2022-11-24T21:51:55.651Z,7.07
2022-11-24T21:54:24.792Z,7.04
2022-11-24T21:56:54.315Z,7.01
2022-11-24T21:59:22.798Z,6.93
2022-11-24T22:01:51.323Z,6.97
2022-11-24T22:04:19.791Z,6.97
2022-11-24T22:06:49.486Z,6.93
2022-11-24T22:09:18.675Z,6.94
2022-11-24T22:11:49.000Z,6.91
2022-11-24T22:14:17.770Z,6.98
2022-11-24T22:16:46.107Z,6.99
2022-11-24T22:19:14.570Z,7.00
2022-11-24T22:21:42.999Z,7.09
2022-11-24T22:24:13.002Z,7.07
2022-11-24T22:26:41.477Z,7.13
2022-11-24T22:29:09.958Z,7.11
2022-11-24T22:31:38.380Z,7.12
2022-11-24T22:34:06.988Z,7.17
2022-11-24T22:36:36.551Z,7.20
2022-11-24T22:39:06.484Z,7.13
2022-11-24T22:41:36.841Z,7.22
2022-11-24T22:44:05.854Z,7.27
2022-11-24T22:46:34.233Z,7.39
2022-11-24T22:49:02.949Z,7.50
2022-11-24T22:51:33.436Z,7.49
2022-11-24T22:54:03.550Z,7.52
2022-11-24T22:56:32.745Z,7.58
2022-11-24T22:59:04.388Z,7.57
2022-11-24T23:01:34.538Z,7.51
2022-11-24T23:04:03.807Z,7.49
2022-11-24T23:06:33.712Z,7.60
2022-11-24T23:09:03.364Z,7.65
2022-11-24T23:11:37.704Z,7.69
2022-11-24T23:14:09.560Z,7.74
2022-11-24T23:16:38.537Z,7.75
2022-11-24T23:19:07.319Z,7.86
2022-11-24T23:21:38.165Z,7.97
2022-11-24T23:24:08.452Z,7.93
2022-11-24T23:26:38.823Z,7.89
2022-11-24T23:29:08.950Z,7.94
2022-11-24T23:31:40.086Z,7.94
2022-11-24T23:34:08.837Z,7.92
2022-11-24T23:36:37.274Z,7.94
2022-11-24T23:39:06.780Z,8.06
2022-11-24T23:41:35.138Z,8.09
2022-11-24T23:44:03.541Z,8.11
2022-11-24T23:46:33.683Z,8.16
2022-11-24T23:49:02.058Z,8.24
2022-11-24T23:51:31.929Z,8.27
2022-11-24T23:54:01.525Z,8.30
2022-11-24T23:56:32.982Z,8.33
2022-11-24T23:59:02.326Z,8.32
